sensor_id;sensor_type;location;lat;lon;timestamp;temperature;humidity
10386;DHT22;34307;51.332;12.334;2023-06-10T00:00:10;18.60;58.60
10386;DHT22;34307;51.332;12.334;2023-06-10T00:02:39;18.50;58.80
10386;DHT22;34307;51.332;12.334;2023-06-10T00:05:08;18.50;59.30
10386;DHT22;34307;51.332;12.334;2023-06-10T00:07:37;18.50;60.10
10386;DHT22;34307;51.332;12.334;2023-06-10T00:10:06;18.40;60.50
10386;DHT22;34307;51.332;12.334;2023-06-10T00:12:36;18.30;61.30
10386;DHT22;34307;51.332;12.334;2023-06-10T00:15:07;18.20;61.80
10386;DHT22;34307;51.332;12.334;2023-06-10T00:17:35;18.20;61.40
10386;DHT22;34307;51.332;12.334;2023-06-10T00:20:07;18.20;62.30
10386;DHT22;34307;51.332;12.334;2023-06-10T00:22:38;18.20;62.60
10386;DHT22;34307;51.332;12.334;2023-06-10T00:25:06;18.10;63.50
10386;DHT22;34307;51.332;12.334;2023-06-10T00:27:38;18.00;64.30
10386;DHT22;34307;51.332;12.334;2023-06-10T00:30:06;17.90;65.50
10386;DHT22;34307;51.332;12.334;2023-06-10T00:32:36;17.80;66.60
10386;DHT22;34307;51.332;12.334;2023-06-10T00:35:06;17.80;67.00
10386;DHT22;34307;51.332;12.334;2023-06-10T00:37:37;17.70;66.90
10386;DHT22;34307;51.332;12.334;2023-06-10T00:40:06;17.60;66.50
10386;DHT22;34307;51.332;12.334;2023-06-10T00:42:37;17.60;67.20
10386;DHT22;34307;51.332;12.334;2023-06-10T00:45:08;17.50;68.90
10386;DHT22;34307;51.332;12.334;2023-06-10T00:47:38;17.50;69.50
10386;DHT22;34307;51.332;12.334;2023-06-10T00:50:06;17.50;69.60
10386;DHT22;34307;51.332;12.334;2023-06-10T00:52:37;17.40;69.60
10386;DHT22;34307;51.332;12.334;2023-06-10T00:55:06;17.30;70.70
10386;DHT22;34307;51.332;12.334;2023-06-10T00:57:38;17.30;71.30
10386;DHT22;34307;51.332;12.334;2023-06-10T01:00:07;17.10;72.10
10386;DHT22;34307;51.332;12.334;2023-06-10T01:02:37;17.10;74.10
10386;DHT22;34307;51.332;12.334;2023-06-10T01:05:05;17.10;74.80
10386;DHT22;34307;51.332;12.334;2023-06-10T01:07:38;17.00;75.70
10386;DHT22;34307;51.332;12.334;2023-06-10T01:10:19;16.90;78.10
10386;DHT22;34307;51.332;12.334;2023-06-10T01:12:56;16.90;79.80
10386;DHT22;34307;51.332;12.334;2023-06-10T01:15:27;16.90;81.70
10386;DHT22;34307;51.332;12.334;2023-06-10T01:17:56;16.80;82.00
10386;DHT22;34307;51.332;12.334;2023-06-10T01:20:29;16.70;82.80
10386;DHT22;34307;51.332;12.334;2023-06-10T01:23:01;16.70;84.00
10386;DHT22;34307;51.332;12.334;2023-06-10T01:25:31;16.60;84.80
10386;DHT22;34307;51.332;12.334;2023-06-10T01:28:07;16.60;85.70
10386;DHT22;34307;51.332;12.334;2023-06-10T01:30:43;16.50;86.80
10386;DHT22;34307;51.332;12.334;2023-06-10T01:33:18;16.50;88.50
10386;DHT22;34307;51.332;12.334;2023-06-10T01:35:47;16.50;89.90
10386;DHT22;34307;51.332;12.334;2023-06-10T01:38:19;16.50;90.30
10386;DHT22;34307;51.332;12.334;2023-06-10T01:40:49;16.40;90.70
10386;DHT22;34307;51.332;12.334;2023-06-10T01:43:17;16.40;91.10
10386;DHT22;34307;51.332;12.334;2023-06-10T01:45:46;16.30;91.60
10386;DHT22;34307;51.332;12.334;2023-06-10T01:48:15;16.20;92.70
10386;DHT22;34307;51.332;12.334;2023-06-10T01:50:45;16.20;93.50
10386;DHT22;34307;51.332;12.334;2023-06-10T01:53:13;16.20;94.20
10386;DHT22;34307;51.332;12.334;2023-06-10T01:55:43;16.20;94.70
10386;DHT22;34307;51.332;12.334;2023-06-10T01:58:12;16.10;94.90
10386;DHT22;34307;51.332;12.334;2023-06-10T02:00:43;16.10;95.10
10386;DHT22;34307;51.332;12.334;2023-06-10T02:03:11;16.10;95.90
10386;DHT22;34307;51.332;12.334;2023-06-10T02:05:39;16.00;96.40
10386;DHT22;34307;51.332;12.334;2023-06-10T02:08:09;16.00;97.60
10386;DHT22;34307;51.332;12.334;2023-06-10T02:10:37;16.00;98.40
10386;DHT22;34307;51.332;12.334;2023-06-10T02:13:07;16.00;99.40
10386;DHT22;34307;51.332;12.334;2023-06-10T02:15:35;16.00;99.90
10386;DHT22;34307;51.332;12.334;2023-06-10T02:18:03;15.90;99.90
10386;DHT22;34307;51.332;12.334;2023-06-10T02:20:34;15.90;99.90
10386;DHT22;34307;51.332;12.334;2023-06-10T02:23:02;15.90;99.90
10386;DHT22;34307;51.332;12.334;2023-06-10T02:25:33;15.90;99.90
10386;DHT22;34307;51.332;12.334;2023-06-10T02:28:01;15.90;99.90
10386;DHT22;34307;51.332;12.334;2023-06-10T02:30:33;15.90;99.90
10386;DHT22;34307;51.332;12.334;2023-06-10T02:33:05;15.80;99.90
10386;DHT22;34307;51.332;12.334;2023-06-10T02:35:38;15.80;99.90
10386;DHT22;34307;51.332;12.334;2023-06-10T02:38:07;15.70;99.90
10386;DHT22;34307;51.332;12.334;2023-06-10T02:40:35;15.70;99.90
10386;DHT22;34307;51.332;12.334;2023-06-10T02:43:03;15.70;99.90
10386;DHT22;34307;51.332;12.334;2023-06-10T02:45:32;15.70;99.90
10386;DHT22;34307;51.332;12.334;2023-06-10T02:48:01;15.60;99.90
10386;DHT22;34307;51.332;12.334;2023-06-10T02:50:29;15.60;99.90
10386;DHT22;34307;51.332;12.334;2023-06-10T02:52:58;15.50;99.90
10386;DHT22;34307;51.332;12.334;2023-06-10T02:55:26;15.50;99.90
10386;DHT22;34307;51.332;12.334;2023-06-10T02:57:55;15.40;99.90
10386;DHT22;34307;51.332;12.334;2023-06-10T03:00:24;15.30;99.90
10386;DHT22;34307;51.332;12.334;2023-06-10T03:02:53;15.20;99.90
10386;DHT22;34307;51.332;12.334;2023-06-10T03:05:25;15.20;99.90
10386;DHT22;34307;51.332;12.334;2023-06-10T03:07:53;15.10;99.90
10386;DHT22;34307;51.332;12.334;2023-06-10T03:10:22;15.10;99.90
10386;DHT22;34307;51.332;12.334;2023-06-10T03:12:50;15.00;99.90
10386;DHT22;34307;51.332;12.334;2023-06-10T03:15:18;14.90;99.90
10386;DHT22;34307;51.332;12.334;2023-06-10T03:17:52;14.90;99.90
10386;DHT22;34307;51.332;12.334;2023-06-10T03:20:20;14.80;99.90
10386;DHT22;34307;51.332;12.334;2023-06-10T03:22:48;14.70;99.90
10386;DHT22;34307;51.332;12.334;2023-06-10T03:25:17;14.60;99.90
10386;DHT22;34307;51.332;12.334;2023-06-10T03:27:47;14.60;99.90
10386;DHT22;34307;51.332;12.334;2023-06-10T03:30:15;14.60;99.90
10386;DHT22;34307;51.332;12.334;2023-06-10T03:32:43;14.60;99.90
10386;DHT22;34307;51.332;12.334;2023-06-10T03:35:13;14.60;99.90
10386;DHT22;34307;51.332;12.334;2023-06-10T03:37:41;14.50;99.90
10386;DHT22;34307;51.332;12.334;2023-06-10T03:40:09;14.50;99.90
10386;DHT22;34307;51.332;12.334;2023-06-10T03:42:37;14.60;99.90
10386;DHT22;34307;51.332;12.334;2023-06-10T03:45:07;14.50;99.90
10386;DHT22;34307;51.332;12.334;2023-06-10T03:47:37;14.50;99.90
10386;DHT22;34307;51.332;12.334;2023-06-10T03:50:06;14.50;99.90
10386;DHT22;34307;51.332;12.334;2023-06-10T03:52:38;14.50;99.90
10386;DHT22;34307;51.332;12.334;2023-06-10T03:55:07;14.50;99.90
10386;DHT22;34307;51.332;12.334;2023-06-10T03:57:38;14.50;99.90
10386;DHT22;34307;51.332;12.334;2023-06-10T04:00:07;14.50;99.90
10386;DHT22;34307;51.332;12.334;2023-06-10T04:02:38;14.50;99.90
10386;DHT22;34307;51.332;12.334;2023-06-10T04:05:13;14.50;99.90
10386;DHT22;34307;51.332;12.334;2023-06-10T04:07:44;14.60;99.90
10386;DHT22;34307;51.332;12.334;2023-06-10T04:10:12;14.60;99.90
10386;DHT22;34307;51.332;12.334;2023-06-10T04:12:40;14.70;99.90
10386;DHT22;34307;51.332;12.334;2023-06-10T04:15:09;14.70;99.90
10386;DHT22;34307;51.332;12.334;2023-06-10T04:17:37;14.70;99.90
10386;DHT22;34307;51.332;12.334;2023-06-10T04:20:07;14.70;99.90
10386;DHT22;34307;51.332;12.334;2023-06-10T04:22:38;14.70;99.90
10386;DHT22;34307;51.332;12.334;2023-06-10T04:25:09;14.70;99.90
10386;DHT22;34307;51.332;12.334;2023-06-10T04:27:37;14.80;99.90
10386;DHT22;34307;51.332;12.334;2023-06-10T04:30:06;14.80;99.90
10386;DHT22;34307;51.332;12.334;2023-06-10T04:32:36;14.80;99.90
10386;DHT22;34307;51.332;12.334;2023-06-10T04:35:05;14.80;99.90
10386;DHT22;34307;51.332;12.334;2023-06-10T04:37:34;14.80;99.90
10386;DHT22;34307;51.332;12.334;2023-06-10T04:40:02;14.80;99.90
10386;DHT22;34307;51.332;12.334;2023-06-10T04:42:32;14.80;99.90
10386;DHT22;34307;51.332;12.334;2023-06-10T04:45:02;14.80;99.90
10386;DHT22;34307;51.332;12.334;2023-06-10T04:47:30;14.80;99.90
10386;DHT22;34307;51.332;12.334;2023-06-10T04:49:59;14.80;99.90
10386;DHT22;34307;51.332;12.334;2023-06-10T04:52:28;14.80;99.90
10386;DHT22;34307;51.332;12.334;2023-06-10T04:54:57;14.80;99.90
10386;DHT22;34307;51.332;12.334;2023-06-10T04:57:25;14.80;99.90
10386;DHT22;34307;51.332;12.334;2023-06-10T04:59:54;14.70;99.90
10386;DHT22;34307;51.332;12.334;2023-06-10T05:02:22;14.80;99.90
10386;DHT22;34307;51.332;12.334;2023-06-10T05:04:51;14.90;99.90
10386;DHT22;34307;51.332;12.334;2023-06-10T05:07:19;14.80;99.90
10386;DHT22;34307;51.332;12.334;2023-06-10T05:09:49;14.80;99.90
10386;DHT22;34307;51.332;12.334;2023-06-10T05:12:18;14.90;99.90
10386;DHT22;34307;51.332;12.334;2023-06-10T05:14:46;14.90;99.90
10386;DHT22;34307;51.332;12.334;2023-06-10T05:17:16;15.00;99.90
10386;DHT22;34307;51.332;12.334;2023-06-10T05:19:43;15.20;99.90
10386;DHT22;34307;51.332;12.334;2023-06-10T05:22:14;15.10;99.90
10386;DHT22;34307;51.332;12.334;2023-06-10T05:24:43;15.20;99.90
10386;DHT22;34307;51.332;12.334;2023-06-10T05:27:11;15.30;99.90
10386;DHT22;34307;51.332;12.334;2023-06-10T05:29:39;15.30;99.90
10386;DHT22;34307;51.332;12.334;2023-06-10T05:32:08;15.30;99.90
10386;DHT22;34307;51.332;12.334;2023-06-10T05:34:37;15.30;99.90
10386;DHT22;34307;51.332;12.334;2023-06-10T05:37:05;15.40;99.90
10386;DHT22;34307;51.332;12.334;2023-06-10T05:39:35;15.40;99.90
10386;DHT22;34307;51.332;12.334;2023-06-10T05:42:06;15.50;99.90
10386;DHT22;34307;51.332;12.334;2023-06-10T05:44:35;15.60;99.90
10386;DHT22;34307;51.332;12.334;2023-06-10T05:47:04;15.70;99.90
10386;DHT22;34307;51.332;12.334;2023-06-10T05:49:32;15.70;99.90
10386;DHT22;34307;51.332;12.334;2023-06-10T05:52:02;15.80;99.90
10386;DHT22;34307;51.332;12.334;2023-06-10T05:54:30;15.80;99.90
10386;DHT22;34307;51.332;12.334;2023-06-10T05:56:58;15.80;99.90
10386;DHT22;34307;51.332;12.334;2023-06-10T05:59:26;15.90;99.90
10386;DHT22;34307;51.332;12.334;2023-06-10T06:01:54;16.10;99.90
10386;DHT22;34307;51.332;12.334;2023-06-10T06:04:22;16.00;99.90
10386;DHT22;34307;51.332;12.334;2023-06-10T06:06:50;16.10;99.90
10386;DHT22;34307;51.332;12.334;2023-06-10T06:09:19;16.20;99.90
10386;DHT22;34307;51.332;12.334;2023-06-10T06:11:47;16.30;99.90
10386;DHT22;34307;51.332;12.334;2023-06-10T06:14:15;16.40;99.90
10386;DHT22;34307;51.332;12.334;2023-06-10T06:16:42;16.40;99.90
10386;DHT22;34307;51.332;12.334;2023-06-10T06:19:10;16.30;99.90
10386;DHT22;34307;51.332;12.334;2023-06-10T06:21:39;16.30;99.90
10386;DHT22;34307;51.332;12.334;2023-06-10T06:24:07;16.50;99.90
10386;DHT22;34307;51.332;12.334;2023-06-10T06:26:42;16.50;99.90
10386;DHT22;34307;51.332;12.334;2023-06-10T06:29:09;16.60;99.90
10386;DHT22;34307;51.332;12.334;2023-06-10T06:31:37;16.70;99.90
10386;DHT22;34307;51.332;12.334;2023-06-10T06:34:05;16.80;99.90
10386;DHT22;34307;51.332;12.334;2023-06-10T06:36:35;16.90;99.90
10386;DHT22;34307;51.332;12.334;2023-06-10T06:39:03;16.90;99.90
10386;DHT22;34307;51.332;12.334;2023-06-10T06:41:34;16.90;99.90
10386;DHT22;34307;51.332;12.334;2023-06-10T06:44:05;16.80;99.90
10386;DHT22;34307;51.332;12.334;2023-06-10T06:46:33;17.00;99.90
10386;DHT22;34307;51.332;12.334;2023-06-10T06:49:01;17.30;99.90
10386;DHT22;34307;51.332;12.334;2023-06-10T06:51:29;17.30;99.90
10386;DHT22;34307;51.332;12.334;2023-06-10T06:53:57;17.30;99.90
10386;DHT22;34307;51.332;12.334;2023-06-10T06:56:28;17.10;99.90
10386;DHT22;34307;51.332;12.334;2023-06-10T06:58:58;17.10;99.90
10386;DHT22;34307;51.332;12.334;2023-06-10T07:01:28;17.40;99.90
10386;DHT22;34307;51.332;12.334;2023-06-10T07:03:56;17.50;99.90
10386;DHT22;34307;51.332;12.334;2023-06-10T07:06:24;17.70;99.90
10386;DHT22;34307;51.332;12.334;2023-06-10T07:08:53;17.90;99.90
10386;DHT22;34307;51.332;12.334;2023-06-10T07:11:24;17.90;99.90
10386;DHT22;34307;51.332;12.334;2023-06-10T07:13:53;18.10;99.90
10386;DHT22;34307;51.332;12.334;2023-06-10T07:16:21;18.20;99.90
10386;DHT22;34307;51.332;12.334;2023-06-10T07:18:53;18.00;99.90
10386;DHT22;34307;51.332;12.334;2023-06-10T07:21:22;17.80;99.90
10386;DHT22;34307;51.332;12.334;2023-06-10T07:23:51;17.80;99.90
10386;DHT22;34307;51.332;12.334;2023-06-10T07:26:22;17.80;99.90
10386;DHT22;34307;51.332;12.334;2023-06-10T07:28:53;17.90;99.90
10386;DHT22;34307;51.332;12.334;2023-06-10T07:31:21;18.10;99.90
10386;DHT22;34307;51.332;12.334;2023-06-10T07:33:50;18.10;99.90
10386;DHT22;34307;51.332;12.334;2023-06-10T07:36:20;18.00;99.90
10386;DHT22;34307;51.332;12.334;2023-06-10T07:38:49;18.10;99.90
10386;DHT22;34307;51.332;12.334;2023-06-10T07:41:17;18.40;99.90
10386;DHT22;34307;51.332;12.334;2023-06-10T07:43:46;18.40;99.90
10386;DHT22;34307;51.332;12.334;2023-06-10T07:46:14;18.70;99.90
10386;DHT22;34307;51.332;12.334;2023-06-10T07:48:48;18.70;99.90
10386;DHT22;34307;51.332;12.334;2023-06-10T07:51:17;18.80;99.90
10386;DHT22;34307;51.332;12.334;2023-06-10T07:53:47;18.90;99.90
10386;DHT22;34307;51.332;12.334;2023-06-10T07:56:15;18.90;99.90
10386;DHT22;34307;51.332;12.334;2023-06-10T07:58:43;19.20;99.90
10386;DHT22;34307;51.332;12.334;2023-06-10T08:01:14;19.60;99.90
10386;DHT22;34307;51.332;12.334;2023-06-10T08:03:43;20.30;99.90
10386;DHT22;34307;51.332;12.334;2023-06-10T08:06:28;20.60;99.90
10386;DHT22;34307;51.332;12.334;2023-06-10T08:08:56;21.00;99.90
10386;DHT22;34307;51.332;12.334;2023-06-10T08:11:25;21.60;94.90
10386;DHT22;34307;51.332;12.334;2023-06-10T08:13:55;21.60;92.70
10386;DHT22;34307;51.332;12.334;2023-06-10T08:16:27;21.30;93.00
10386;DHT22;34307;51.332;12.334;2023-06-10T08:18:57;21.40;92.90
10386;DHT22;34307;51.332;12.334;2023-06-10T08:21:25;21.60;90.80
10386;DHT22;34307;51.332;12.334;2023-06-10T08:23:57;21.70;92.00
10386;DHT22;34307;51.332;12.334;2023-06-10T08:26:28;22.30;87.20
10386;DHT22;34307;51.332;12.334;2023-06-10T08:28:58;22.30;81.80
10386;DHT22;34307;51.332;12.334;2023-06-10T08:31:26;22.50;80.10
10386;DHT22;34307;51.332;12.334;2023-06-10T08:33:55;22.60;77.50
10386;DHT22;34307;51.332;12.334;2023-06-10T08:36:30;22.50;77.80
10386;DHT22;34307;51.332;12.334;2023-06-10T08:39:06;22.70;76.30
10386;DHT22;34307;51.332;12.334;2023-06-10T08:41:44;22.60;76.20
10386;DHT22;34307;51.332;12.334;2023-06-10T08:44:36;22.80;74.50
10386;DHT22;34307;51.332;12.334;2023-06-10T08:47:14;23.10;75.00
10386;DHT22;34307;51.332;12.334;2023-06-10T08:50:04;23.40;71.40
10386;DHT22;34307;51.332;12.334;2023-06-10T08:52:36;23.20;71.20
10386;DHT22;34307;51.332;12.334;2023-06-10T08:55:30;23.10;70.50
10386;DHT22;34307;51.332;12.334;2023-06-10T08:58:16;22.90;70.10
10386;DHT22;34307;51.332;12.334;2023-06-10T09:00:48;22.80;74.30
10386;DHT22;34307;51.332;12.334;2023-06-10T09:03:21;23.20;72.10
10386;DHT22;34307;51.332;12.334;2023-06-10T09:05:57;23.60;69.00
10386;DHT22;34307;51.332;12.334;2023-06-10T09:08:29;23.20;67.10
10386;DHT22;34307;51.332;12.334;2023-06-10T09:11:03;23.10;69.50
10386;DHT22;34307;51.332;12.334;2023-06-10T09:13:33;23.50;69.20
10386;DHT22;34307;51.332;12.334;2023-06-10T09:16:30;23.90;66.40
10386;DHT22;34307;51.332;12.334;2023-06-10T09:19:01;24.40;64.10
10386;DHT22;34307;51.332;12.334;2023-06-10T09:21:35;24.60;60.80
10386;DHT22;34307;51.332;12.334;2023-06-10T09:24:07;25.00;58.70
10386;DHT22;34307;51.332;12.334;2023-06-10T09:27:02;24.20;58.80
10386;DHT22;34307;51.332;12.334;2023-06-10T09:29:48;24.40;62.00
10386;DHT22;34307;51.332;12.334;2023-06-10T09:32:29;24.80;59.60
10386;DHT22;34307;51.332;12.334;2023-06-10T09:35:15;25.00;58.50
10386;DHT22;34307;51.332;12.334;2023-06-10T09:37:56;25.20;57.60
10386;DHT22;34307;51.332;12.334;2023-06-10T09:40:27;25.40;56.20
10386;DHT22;34307;51.332;12.334;2023-06-10T09:42:57;25.70;54.00
10386;DHT22;34307;51.332;12.334;2023-06-10T09:45:29;25.90;53.20
10386;DHT22;34307;51.332;12.334;2023-06-10T09:48:00;25.70;52.30
10386;DHT22;34307;51.332;12.334;2023-06-10T09:50:34;25.70;52.30
10386;DHT22;34307;51.332;12.334;2023-06-10T09:53:06;25.80;51.40
10386;DHT22;34307;51.332;12.334;2023-06-10T09:55:37;25.90;52.80
10386;DHT22;34307;51.332;12.334;2023-06-10T09:58:07;26.20;51.30
10386;DHT22;34307;51.332;12.334;2023-06-10T10:00:36;26.60;51.80
10386;DHT22;34307;51.332;12.334;2023-06-10T10:03:04;26.60;50.00
10386;DHT22;34307;51.332;12.334;2023-06-10T10:05:35;26.80;45.30
10386;DHT22;34307;51.332;12.334;2023-06-10T10:08:03;26.80;46.50
10386;DHT22;34307;51.332;12.334;2023-06-10T10:10:33;26.70;46.60
10386;DHT22;34307;51.332;12.334;2023-06-10T10:13:03;26.80;46.50
10386;DHT22;34307;51.332;12.334;2023-06-10T10:15:33;27.20;46.10
10386;DHT22;34307;51.332;12.334;2023-06-10T10:18:07;27.40;44.70
10386;DHT22;34307;51.332;12.334;2023-06-10T10:20:41;27.40;44.50
10386;DHT22;34307;51.332;12.334;2023-06-10T10:23:14;27.50;43.30
10386;DHT22;34307;51.332;12.334;2023-06-10T10:25:44;27.50;43.00
10386;DHT22;34307;51.332;12.334;2023-06-10T10:28:17;27.60;41.20
10386;DHT22;34307;51.332;12.334;2023-06-10T10:30:52;27.50;39.30
10386;DHT22;34307;51.332;12.334;2023-06-10T10:33:27;27.40;38.90
10386;DHT22;34307;51.332;12.334;2023-06-10T10:36:00;27.40;37.60
10386;DHT22;34307;51.332;12.334;2023-06-10T10:38:28;27.70;39.40
10386;DHT22;34307;51.332;12.334;2023-06-10T10:40:58;28.00;36.50
10386;DHT22;34307;51.332;12.334;2023-06-10T10:43:27;28.20;36.20
10386;DHT22;34307;51.332;12.334;2023-06-10T10:46:01;28.50;33.90
10386;DHT22;34307;51.332;12.334;2023-06-10T10:48:35;28.50;36.00
10386;DHT22;34307;51.332;12.334;2023-06-10T10:51:06;28.60;35.20
10386;DHT22;34307;51.332;12.334;2023-06-10T10:53:33;28.80;34.10
10386;DHT22;34307;51.332;12.334;2023-06-10T10:56:05;29.10;32.80
10386;DHT22;34307;51.332;12.334;2023-06-10T10:58:39;29.30;28.90
10386;DHT22;34307;51.332;12.334;2023-06-10T11:01:14;29.50;28.50
10386;DHT22;34307;51.332;12.334;2023-06-10T11:03:43;29.70;24.90
10386;DHT22;34307;51.332;12.334;2023-06-10T11:06:15;29.80;23.90
10386;DHT22;34307;51.332;12.334;2023-06-10T11:08:47;29.40;23.50
10386;DHT22;34307;51.332;12.334;2023-06-10T11:11:22;29.40;24.40
10386;DHT22;34307;51.332;12.334;2023-06-10T11:13:58;29.40;18.70
10386;DHT22;34307;51.332;12.334;2023-06-10T11:16:29;29.50;19.00
10386;DHT22;34307;51.332;12.334;2023-06-10T11:18:57;29.50;17.50
10386;DHT22;34307;51.332;12.334;2023-06-10T11:21:25;29.90;16.50
10386;DHT22;34307;51.332;12.334;2023-06-10T11:23:58;30.30;14.20
10386;DHT22;34307;51.332;12.334;2023-06-10T11:26:30;30.20;10.80
10386;DHT22;34307;51.332;12.334;2023-06-10T11:29:06;30.00;11.70
10386;DHT22;34307;51.332;12.334;2023-06-10T11:31:45;30.30;12.40
10386;DHT22;34307;51.332;12.334;2023-06-10T11:34:15;30.60;9.10
10386;DHT22;34307;51.332;12.334;2023-06-10T11:36:50;30.20;4.70
10386;DHT22;34307;51.332;12.334;2023-06-10T11:39:20;30.30;7.20
10386;DHT22;34307;51.332;12.334;2023-06-10T11:41:51;30.70;4.60
10386;DHT22;34307;51.332;12.334;2023-06-10T11:44:19;30.60;3.70
10386;DHT22;34307;51.332;12.334;2023-06-10T11:46:49;31.00;4.40
10386;DHT22;34307;51.332;12.334;2023-06-10T11:49:20;31.60;2.10
10386;DHT22;34307;51.332;12.334;2023-06-10T11:51:48;31.70;1.00
10386;DHT22;34307;51.332;12.334;2023-06-10T11:54:19;31.40;1.00
10386;DHT22;34307;51.332;12.334;2023-06-10T11:56:49;30.70;1.00
10386;DHT22;34307;51.332;12.334;2023-06-10T11:59:18;30.20;1.00
10386;DHT22;34307;51.332;12.334;2023-06-10T12:01:46;30.40;1.00
10386;DHT22;34307;51.332;12.334;2023-06-10T12:04:16;30.10;1.00
10386;DHT22;34307;51.332;12.334;2023-06-10T12:06:47;29.80;1.90
10386;DHT22;34307;51.332;12.334;2023-06-10T12:09:19;30.60;1.00
10386;DHT22;34307;51.332;12.334;2023-06-10T12:11:55;31.70;1.00
10386;DHT22;34307;51.332;12.334;2023-06-10T12:14:49;32.10;1.00
10386;DHT22;34307;51.332;12.334;2023-06-10T12:17:18;32.40;1.00
10386;DHT22;34307;51.332;12.334;2023-06-10T12:19:48;32.70;1.00
10386;DHT22;34307;51.332;12.334;2023-06-10T12:22:17;33.00;1.00
10386;DHT22;34307;51.332;12.334;2023-06-10T12:24:58;32.50;1.00
10386;DHT22;34307;51.332;12.334;2023-06-10T12:27:34;31.30;1.00
10386;DHT22;34307;51.332;12.334;2023-06-10T12:30:05;30.00;1.00
10386;DHT22;34307;51.332;12.334;2023-06-10T12:32:38;29.40;1.00
10386;DHT22;34307;51.332;12.334;2023-06-10T12:35:10;29.20;1.00
10386;DHT22;34307;51.332;12.334;2023-06-10T12:37:56;30.20;1.00
10386;DHT22;34307;51.332;12.334;2023-06-10T12:40:28;31.10;1.00
10386;DHT22;34307;51.332;12.334;2023-06-10T12:42:59;31.30;1.00
10386;DHT22;34307;51.332;12.334;2023-06-10T12:45:28;31.00;1.00
10386;DHT22;34307;51.332;12.334;2023-06-10T12:48:07;30.70;1.00
10386;DHT22;34307;51.332;12.334;2023-06-10T12:50:39;30.50;1.00
10386;DHT22;34307;51.332;12.334;2023-06-10T12:53:08;30.40;1.00
10386;DHT22;34307;51.332;12.334;2023-06-10T12:55:36;29.80;1.00
10386;DHT22;34307;51.332;12.334;2023-06-10T12:58:04;30.60;1.00
10386;DHT22;34307;51.332;12.334;2023-06-10T13:00:33;30.10;1.00
10386;DHT22;34307;51.332;12.334;2023-06-10T13:03:03;29.20;1.00
10386;DHT22;34307;51.332;12.334;2023-06-10T13:05:33;28.20;1.00
10386;DHT22;34307;51.332;12.334;2023-06-10T13:08:04;27.80;1.00
10386;DHT22;34307;51.332;12.334;2023-06-10T13:10:33;27.80;1.00
10386;DHT22;34307;51.332;12.334;2023-06-10T13:13:02;28.00;1.00
10386;DHT22;34307;51.332;12.334;2023-06-10T13:15:33;27.50;1.00
10386;DHT22;34307;51.332;12.334;2023-06-10T13:18:07;27.10;1.00
10386;DHT22;34307;51.332;12.334;2023-06-10T13:20:35;26.40;1.00
10386;DHT22;34307;51.332;12.334;2023-06-10T13:23:08;25.70;1.20
10386;DHT22;34307;51.332;12.334;2023-06-10T13:25:40;25.50;17.60
10386;DHT22;34307;51.332;12.334;2023-06-10T13:28:11;25.40;29.00
10386;DHT22;34307;51.332;12.334;2023-06-10T13:30:39;25.20;30.90
10386;DHT22;34307;51.332;12.334;2023-06-10T13:33:07;25.20;30.10
10386;DHT22;34307;51.332;12.334;2023-06-10T13:35:35;25.20;23.20
10386;DHT22;34307;51.332;12.334;2023-06-10T13:38:05;25.20;17.50
10386;DHT22;34307;51.332;12.334;2023-06-10T13:40:36;25.20;12.00
10386;DHT22;34307;51.332;12.334;2023-06-10T13:43:06;25.40;9.40
10386;DHT22;34307;51.332;12.334;2023-06-10T13:45:40;25.60;7.90
10386;DHT22;34307;51.332;12.334;2023-06-10T13:48:09;25.80;4.90
10386;DHT22;34307;51.332;12.334;2023-06-10T13:50:37;26.00;3.00
10386;DHT22;34307;51.332;12.334;2023-06-10T13:53:07;26.10;1.00
10386;DHT22;34307;51.332;12.334;2023-06-10T13:55:38;26.10;1.00
10386;DHT22;34307;51.332;12.334;2023-06-10T13:58:05;26.20;1.00
10386;DHT22;34307;51.332;12.334;2023-06-10T14:00:33;26.60;1.00
10386;DHT22;34307;51.332;12.334;2023-06-10T14:03:01;27.00;1.00
10386;DHT22;34307;51.332;12.334;2023-06-10T14:05:30;27.50;1.00
10386;DHT22;34307;51.332;12.334;2023-06-10T14:07:58;28.20;1.00
10386;DHT22;34307;51.332;12.334;2023-06-10T14:10:28;28.80;1.00
10386;DHT22;34307;51.332;12.334;2023-06-10T14:12:55;28.60;1.00
10386;DHT22;34307;51.332;12.334;2023-06-10T14:15:24;28.70;1.00
10386;DHT22;34307;51.332;12.334;2023-06-10T14:17:53;29.30;1.00
10386;DHT22;34307;51.332;12.334;2023-06-10T14:20:22;30.80;1.00
10386;DHT22;34307;51.332;12.334;2023-06-10T14:22:49;31.50;1.00
10386;DHT22;34307;51.332;12.334;2023-06-10T14:25:19;31.40;1.00
10386;DHT22;34307;51.332;12.334;2023-06-10T14:27:50;31.20;1.00
10386;DHT22;34307;51.332;12.334;2023-06-10T14:30:25;30.80;1.00
10386;DHT22;34307;51.332;12.334;2023-06-10T14:32:52;30.70;1.00
10386;DHT22;34307;51.332;12.334;2023-06-10T14:35:20;30.30;1.00
10386;DHT22;34307;51.332;12.334;2023-06-10T14:37:48;30.10;1.00
10386;DHT22;34307;51.332;12.334;2023-06-10T14:40:16;29.80;1.00
10386;DHT22;34307;51.332;12.334;2023-06-10T14:42:44;29.50;1.00
10386;DHT22;34307;51.332;12.334;2023-06-10T14:45:13;29.50;1.00
10386;DHT22;34307;51.332;12.334;2023-06-10T14:47:42;29.40;1.00
10386;DHT22;34307;51.332;12.334;2023-06-10T14:50:10;29.20;1.00
10386;DHT22;34307;51.332;12.334;2023-06-10T14:52:38;29.10;1.00
10386;DHT22;34307;51.332;12.334;2023-06-10T14:55:11;29.10;1.00
10386;DHT22;34307;51.332;12.334;2023-06-10T14:57:41;28.70;1.00
10386;DHT22;34307;51.332;12.334;2023-06-10T15:00:11;27.60;1.00
10386;DHT22;34307;51.332;12.334;2023-06-10T15:02:46;26.80;1.00
10386;DHT22;34307;51.332;12.334;2023-06-10T15:05:18;26.10;1.00
10386;DHT22;34307;51.332;12.334;2023-06-10T15:07:50;25.70;1.00
10386;DHT22;34307;51.332;12.334;2023-06-10T15:10:21;25.40;1.00
10386;DHT22;34307;51.332;12.334;2023-06-10T15:12:52;25.30;1.00
10386;DHT22;34307;51.332;12.334;2023-06-10T15:15:25;25.30;1.00
10386;DHT22;34307;51.332;12.334;2023-06-10T15:17:57;25.30;2.80
10386;DHT22;34307;51.332;12.334;2023-06-10T15:20:25;25.50;5.10
10386;DHT22;34307;51.332;12.334;2023-06-10T15:22:53;25.70;7.40
10386;DHT22;34307;51.332;12.334;2023-06-10T15:25:21;26.50;7.40
10386;DHT22;34307;51.332;12.334;2023-06-10T15:27:52;26.70;6.20
10386;DHT22;34307;51.332;12.334;2023-06-10T15:30:21;26.10;7.70
10386;DHT22;34307;51.332;12.334;2023-06-10T15:32:49;26.30;7.60
10386;DHT22;34307;51.332;12.334;2023-06-10T15:35:20;26.90;9.50
10386;DHT22;34307;51.332;12.334;2023-06-10T15:37:48;27.80;8.50
10386;DHT22;34307;51.332;12.334;2023-06-10T15:40:16;29.00;5.80